createdAt,value
2018-06-05T00:00:24.308Z,57.30
2018-06-05T00:03:26.378Z,57.88
2018-06-05T00:06:28.456Z,58.23
2018-06-05T00:09:31.430Z,58.77
2018-06-05T00:12:33.519Z,59.69
2018-06-05T00:15:36.703Z,60.16
2018-06-05T00:18:38.672Z,59.22
2018-06-05T00:21:40.733Z,58.54
2018-06-05T00:24:42.788Z,58.99
2018-06-05T00:27:44.880Z,58.82
2018-06-05T00:30:47.087Z,58.99
2018-06-05T00:33:49.108Z,60.35
2018-06-05T00:36:51.291Z,61.18
2018-06-05T00:39:53.383Z,61.65
2018-06-05T00:42:55.463Z,61.62
2018-06-05T00:45:57.483Z,60.48
2018-06-05T00:48:59.531Z,61.00
2018-06-05T00:52:07.785Z,60.26
2018-06-05T00:55:09.831Z,60.03
2018-06-05T00:58:11.938Z,61.00
2018-06-05T01:01:15.526Z,61.68
2018-06-05T01:04:17.700Z,60.91
2018-06-05T01:07:22.150Z,61.03
2018-06-05T01:10:24.291Z,62.37
2018-06-05T01:13:26.368Z,62.78
2018-06-05T01:16:32.614Z,61.58
2018-06-05T01:19:34.683Z,62.29
2018-06-05T01:22:37.990Z,62.66
2018-06-05T01:25:40.063Z,62.14
2018-06-05T01:28:42.115Z,62.45
2018-06-05T01:31:44.183Z,62.13
2018-06-05T01:34:47.318Z,62.15
2018-06-05T01:37:49.356Z,62.09
2018-06-05T01:40:51.551Z,61.14
2018-06-05T01:43:53.599Z,62.39
2018-06-05T01:46:55.654Z,62.35
2018-06-05T01:49:57.726Z,61.65
2018-06-05T01:52:59.827Z,62.12
2018-06-05T01:56:01.865Z,60.83
2018-06-05T01:59:03.979Z,62.24
2018-06-05T02:02:08.066Z,62.96
2018-06-05T02:05:10.115Z,63.40
2018-06-05T02:08:12.181Z,63.93
2018-06-05T02:11:14.250Z,62.95
2018-06-05T02:14:17.366Z,62.84
2018-06-05T02:17:19.335Z,63.66
2018-06-05T02:20:21.420Z,63.21
2018-06-05T02:23:25.391Z,63.72
2018-06-05T02:26:27.476Z,64.26
2018-06-05T02:29:29.448Z,64.53
2018-06-05T02:32:31.516Z,64.78
2018-06-05T02:35:33.705Z,64.04
2018-06-05T02:38:35.758Z,63.80
2018-06-05T02:41:38.727Z,63.85
2018-06-05T02:44:40.800Z,65.27
2018-06-05T02:47:42.880Z,65.77
2018-06-05T02:50:44.936Z,66.46
2018-06-05T02:53:47.056Z,66.06
2018-06-05T02:56:49.206Z,66.33
2018-06-05T02:59:51.253Z,66.30
2018-06-05T03:02:53.335Z,66.12
2018-06-05T03:05:55.388Z,66.47
2018-06-05T03:08:57.446Z,66.83
2018-06-05T03:11:59.543Z,67.18
2018-06-05T03:15:01.585Z,66.96
2018-06-05T03:18:03.539Z,66.95
2018-06-05T03:21:08.673Z,66.39
2018-06-05T03:24:10.779Z,66.88
2018-06-05T03:27:12.820Z,67.16
2018-06-05T03:30:14.771Z,67.79
2018-06-05T03:33:16.869Z,68.27
2018-06-05T03:36:18.924Z,68.31
2018-06-05T03:39:21.039Z,68.41
2018-06-05T03:42:23.075Z,68.64
2018-06-05T03:45:25.160Z,68.83
2018-06-05T03:48:27.211Z,68.69
2018-06-05T03:51:29.257Z,68.36
2018-06-05T03:54:31.343Z,67.84
2018-06-05T03:57:33.444Z,66.94
2018-06-05T04:00:35.483Z,67.44
2018-06-05T04:03:38.409Z,69.33
2018-06-05T04:06:40.441Z,69.59
2018-06-05T04:09:42.509Z,69.67
2018-06-05T04:12:44.563Z,69.67
2018-06-05T04:15:46.534Z,70.29
2018-06-05T04:18:49.638Z,70.42
2018-06-05T04:21:51.683Z,70.21
2018-06-05T04:24:53.650Z,69.39
2018-06-05T04:27:55.715Z,69.13
2018-06-05T04:30:57.837Z,69.67
2018-06-05T04:33:59.866Z,68.70
2018-06-05T04:37:01.984Z,70.21
2018-06-05T04:40:04.119Z,70.25
2018-06-05T04:43:06.102Z,70.60
2018-06-05T04:46:09.303Z,71.01
2018-06-05T04:49:11.307Z,69.42
2018-06-05T04:52:13.437Z,70.15
2018-06-05T04:55:15.483Z,70.94
2018-06-05T04:58:17.848Z,70.52
2018-06-05T05:01:19.921Z,70.90
2018-06-05T05:04:21.946Z,70.54
2018-06-05T05:07:24.161Z,72.27
2018-06-05T05:10:26.226Z,71.46
2018-06-05T05:13:28.287Z,71.70
2018-06-05T05:16:30.396Z,71.33
2018-06-05T05:19:32.421Z,70.70
2018-06-05T05:22:34.388Z,71.41
2018-06-05T05:25:36.474Z,71.32
2018-06-05T05:28:39.367Z,70.98
2018-06-05T05:31:41.451Z,70.93
2018-06-05T05:34:43.493Z,70.40
2018-06-05T05:37:45.602Z,70.20
2018-06-05T05:40:47.639Z,69.29
2018-06-05T05:43:49.640Z,69.73
2018-06-05T05:46:51.655Z,69.80
2018-06-05T05:49:53.739Z,70.43
2018-06-05T05:52:55.802Z,69.92
2018-06-05T05:55:57.778Z,70.28
2018-06-05T05:58:59.842Z,70.20
2018-06-05T06:02:01.997Z,69.96
2018-06-05T06:05:04.318Z,69.71
2018-06-05T06:08:06.366Z,68.78
2018-06-05T06:11:09.684Z,68.74
2018-06-05T06:14:11.749Z,68.35
2018-06-05T06:17:13.700Z,68.84
2018-06-05T06:20:15.763Z,68.00
2018-06-05T06:23:18.858Z,67.99
2018-06-05T06:26:20.940Z,66.95
2018-06-05T06:29:22.867Z,66.68
2018-06-05T06:32:24.975Z,67.36
2018-06-05T06:35:27.237Z,66.43
2018-06-05T06:38:29.302Z,65.85
2018-06-05T06:41:31.252Z,66.37
2018-06-05T06:44:33.416Z,66.58
2018-06-05T06:47:35.511Z,65.84
2018-06-05T06:50:37.579Z,65.16
2018-06-05T06:53:40.354Z,64.14
2018-06-05T06:56:42.432Z,63.66
2018-06-05T06:59:44.507Z,62.79
2018-06-05T07:02:46.506Z,63.47
2018-06-05T07:05:48.781Z,63.27
2018-06-05T07:08:50.811Z,62.95
2018-06-05T07:11:52.874Z,62.75
2018-06-05T07:14:54.938Z,62.40
2018-06-05T07:17:56.861Z,62.66
2018-06-05T07:20:59.000Z,61.61
2018-06-05T07:24:01.071Z,61.98
2018-06-05T07:27:03.198Z,61.69
2018-06-05T07:30:05.327Z,61.98
2018-06-05T07:33:07.362Z,61.12
2018-06-05T07:36:10.554Z,60.71
2018-06-05T07:39:12.611Z,59.43
2018-06-05T07:42:14.716Z,60.00
2018-06-05T07:45:16.763Z,60.59
2018-06-05T07:48:18.828Z,59.91
2018-06-05T07:51:20.886Z,60.55
2018-06-05T07:54:22.978Z,59.70
2018-06-05T07:57:25.016Z,60.43
2018-06-05T08:00:27.027Z,59.83
2018-06-05T08:03:29.217Z,58.54
2018-06-05T08:06:31.239Z,57.33
2018-06-05T08:09:33.286Z,56.61
2018-06-05T08:12:35.247Z,58.11
2018-06-05T08:15:37.372Z,57.54
2018-06-05T08:18:40.190Z,56.79
2018-06-05T08:21:42.486Z,56.17
2018-06-05T08:24:44.594Z,56.72
2018-06-05T08:27:46.629Z,56.98
2018-06-05T08:30:48.735Z,56.48
2018-06-05T08:33:52.432Z,56.37
2018-06-05T08:36:54.615Z,55.57
2018-06-05T08:39:56.701Z,54.57
2018-06-05T08:43:00.832Z,54.80
2018-06-05T08:46:02.841Z,55.70
2018-06-05T08:49:04.925Z,54.41
2018-06-05T08:52:06.998Z,53.87
2018-06-05T08:55:10.304Z,54.56
2018-06-05T08:58:12.742Z,52.50
2018-06-05T09:01:14.845Z,52.10
2018-06-05T09:04:17.944Z,52.07
2018-06-05T09:07:19.966Z,52.37
2018-06-05T09:10:22.077Z,52.20
2018-06-05T09:13:24.055Z,51.65
2018-06-05T09:16:26.110Z,52.05
2018-06-05T09:19:28.146Z,52.40
2018-06-05T09:22:31.383Z,50.72
2018-06-05T09:25:33.559Z,49.92
2018-06-05T09:28:35.778Z,50.72
2018-06-05T09:31:37.885Z,50.46
2018-06-05T09:34:40.023Z,51.41
2018-06-05T09:37:42.003Z,50.57
2018-06-05T09:40:44.058Z,50.77
2018-06-05T09:43:46.158Z,50.43
2018-06-05T09:46:48.240Z,50.92
2018-06-05T09:49:50.398Z,50.68
2018-06-05T09:52:52.435Z,50.08
2018-06-05T09:55:54.575Z,49.82
2018-06-05T09:58:56.690Z,50.15
2018-06-05T10:01:58.693Z,49.43
2018-06-05T10:05:01.883Z,49.15
2018-06-05T10:08:04.930Z,48.63
2018-06-05T10:11:07.061Z,48.31
2018-06-05T10:14:09.123Z,48.10
2018-06-05T10:17:11.227Z,48.40
2018-06-05T10:20:13.179Z,48.26
2018-06-05T10:23:15.298Z,48.23
2018-06-05T10:26:17.366Z,48.57
2018-06-05T10:29:20.431Z,48.33
2018-06-05T10:32:22.532Z,48.41
2018-06-05T10:35:24.471Z,48.42
2018-06-05T10:38:26.570Z,47.59
2018-06-05T10:41:28.739Z,47.16
2018-06-05T10:44:31.234Z,47.09
2018-06-05T10:47:33.401Z,46.01
2018-06-05T10:50:39.082Z,45.87
2018-06-05T10:53:41.260Z,46.48
2018-06-05T10:56:43.235Z,45.97
2018-06-05T10:59:45.347Z,46.89
2018-06-05T11:02:47.386Z,45.46
2018-06-05T11:05:50.494Z,45.79
2018-06-05T11:08:52.406Z,45.21
2018-06-05T11:11:54.427Z,44.95
2018-06-05T11:14:56.479Z,44.75
2018-06-05T11:18:00.668Z,43.69
2018-06-05T11:21:02.623Z,43.58
2018-06-05T11:24:05.859Z,43.70
2018-06-05T11:27:07.918Z,43.26
2018-06-05T11:30:09.962Z,42.81
2018-06-05T11:33:11.966Z,42.95
2018-06-05T11:36:14.048Z,42.82
2018-06-05T11:39:16.159Z,42.54
2018-06-05T11:42:18.183Z,41.87
2018-06-05T11:45:20.276Z,42.39
2018-06-05T11:48:22.319Z,42.77
2018-06-05T11:51:24.416Z,42.43
2018-06-05T11:54:26.536Z,43.03
2018-06-05T11:57:29.748Z,41.48
2018-06-05T12:00:33.032Z,40.60
2018-06-05T12:03:35.134Z,41.33
2018-06-05T12:06:37.208Z,40.68
2018-06-05T12:09:39.245Z,41.08
2018-06-05T12:12:41.388Z,40.89
2018-06-05T12:15:43.531Z,41.51
2018-06-05T12:18:46.187Z,40.74
2018-06-05T12:21:48.231Z,40.26
2018-06-05T12:24:51.339Z,41.35
2018-06-05T12:27:53.411Z,41.51
2018-06-05T12:30:55.489Z,40.40
2018-06-05T12:33:57.578Z,40.39
2018-06-05T12:37:01.831Z,40.10
2018-06-05T12:40:03.860Z,40.79
2018-06-05T12:43:05.900Z,40.39
2018-06-05T12:46:08.275Z,40.24
2018-06-05T12:49:10.325Z,39.53
2018-06-05T12:52:13.329Z,39.22
2018-06-05T12:55:15.416Z,39.01
2018-06-05T12:58:17.554Z,38.58
2018-06-05T13:01:19.653Z,38.43
2018-06-05T13:04:21.716Z,38.14
2018-06-05T13:07:25.735Z,36.64
2018-06-05T13:10:27.747Z,34.45
2018-06-05T13:13:29.769Z,35.18
2018-06-05T13:16:32.898Z,36.03
2018-06-05T13:19:34.932Z,36.63
2018-06-05T13:22:37.128Z,37.29
2018-06-05T13:25:39.188Z,38.91
2018-06-05T13:28:41.347Z,37.63
2018-06-05T13:31:43.413Z,37.49
2018-06-05T13:34:49.864Z,37.17
2018-06-05T13:37:52.770Z,36.52
2018-06-05T13:40:54.815Z,35.40
2018-06-05T13:43:56.811Z,35.71
2018-06-05T13:46:59.526Z,36.39
2018-06-05T13:50:01.564Z,36.18
2018-06-05T13:53:03.601Z,36.56
2018-06-05T13:56:05.598Z,36.44
2018-06-05T13:59:07.697Z,36.63
2018-06-05T14:02:09.834Z,36.97
2018-06-05T14:05:11.960Z,36.52
2018-06-05T14:08:14.029Z,36.72
2018-06-05T14:11:16.448Z,36.31
2018-06-05T14:14:18.508Z,35.79
2018-06-05T14:17:20.527Z,36.25
2018-06-05T14:20:22.654Z,35.83
2018-06-05T14:23:24.712Z,36.21
2018-06-05T14:26:26.811Z,36.99
2018-06-05T14:29:29.811Z,35.95
2018-06-05T14:32:31.863Z,36.24
2018-06-05T14:35:34.146Z,36.09
2018-06-05T14:38:38.159Z,35.52
2018-06-05T14:41:40.334Z,35.90
2018-06-05T14:44:42.408Z,37.16
2018-06-05T14:47:48.213Z,37.68
2018-06-05T14:50:50.443Z,37.56
2018-06-05T14:53:52.991Z,37.19
2018-06-05T14:56:55.047Z,37.59
2018-06-05T14:59:58.151Z,37.15
2018-06-05T15:03:00.951Z,36.90
2018-06-05T15:06:03.145Z,36.59
2018-06-05T15:09:05.823Z,36.27
2018-06-05T15:12:07.855Z,36.71
2018-06-05T15:15:10.046Z,35.95
2018-06-05T15:18:12.116Z,36.08
2018-06-05T15:21:14.175Z,36.24
2018-06-05T15:24:16.332Z,35.52
2018-06-05T15:27:18.400Z,35.88
2018-06-05T15:30:20.457Z,35.61
2018-06-05T15:33:22.573Z,35.22
2018-06-05T15:36:24.614Z,35.19
2018-06-05T15:39:26.596Z,35.28
2018-06-05T15:42:29.583Z,35.02
2018-06-05T15:45:31.610Z,34.51
2018-06-05T15:48:33.671Z,33.78
2018-06-05T15:51:35.670Z,33.60
2018-06-05T15:54:37.740Z,34.44
2018-06-05T15:57:39.807Z,34.69
2018-06-05T16:00:41.865Z,34.25
2018-06-05T16:03:43.979Z,34.88
2018-06-05T16:06:46.060Z,34.62
2018-06-05T16:09:49.143Z,35.06
2018-06-05T16:12:51.297Z,34.36
2018-06-05T16:15:53.417Z,34.99
2018-06-05T16:18:55.417Z,34.47
2018-06-05T16:21:57.851Z,34.94
2018-06-05T16:25:01.177Z,35.05
2018-06-05T16:28:03.323Z,36.19
2018-06-05T16:31:05.356Z,34.48
2018-06-05T16:34:08.414Z,35.18
2018-06-05T16:37:10.489Z,34.93
2018-06-05T16:40:12.567Z,34.73
2018-06-05T16:43:14.613Z,35.55
2018-06-05T16:46:16.688Z,35.11
2018-06-05T16:49:18.828Z,35.32
2018-06-05T16:52:20.858Z,34.64
2018-06-05T16:55:23.008Z,35.02
2018-06-05T16:58:25.063Z,34.31
2018-06-05T17:01:27.128Z,34.76
2018-06-05T17:04:30.301Z,34.40
2018-06-05T17:07:32.287Z,35.15
2018-06-05T17:10:34.524Z,33.94
2018-06-05T17:13:36.624Z,34.44
2018-06-05T17:16:38.693Z,34.64
2018-06-05T17:19:40.670Z,34.73
2018-06-05T17:22:42.729Z,35.10
2018-06-05T17:25:44.839Z,34.46
2018-06-05T17:28:46.871Z,35.19
2018-06-05T17:31:48.947Z,35.47
2018-06-05T17:34:51.920Z,35.13
2018-06-05T17:37:54.014Z,35.19
2018-06-05T17:40:56.252Z,35.09
2018-06-05T17:43:58.226Z,34.77
2018-06-05T17:47:01.769Z,35.19
2018-06-05T17:50:03.839Z,35.46
2018-06-05T17:53:05.919Z,35.42
2018-06-05T17:56:07.954Z,36.04
2018-06-05T17:59:09.997Z,35.76
2018-06-05T18:02:12.240Z,35.60
2018-06-05T18:05:14.258Z,36.05
2018-06-05T18:08:16.416Z,36.31
2018-06-05T18:11:18.511Z,36.51
2018-06-05T18:14:20.551Z,36.57
2018-06-05T18:17:22.820Z,36.67
2018-06-05T18:20:24.936Z,37.17
2018-06-05T18:23:27.059Z,37.48
2018-06-05T18:26:30.084Z,37.12
2018-06-05T18:29:32.067Z,36.77
2018-06-05T18:32:34.115Z,36.89
2018-06-05T18:35:36.207Z,37.43
2018-06-05T18:38:38.404Z,37.72
2018-06-05T18:41:40.552Z,38.00
2018-06-05T18:44:42.611Z,37.86
2018-06-05T18:47:44.807Z,37.95
2018-06-05T18:50:47.131Z,38.07
2018-06-05T18:53:49.251Z,38.60
2018-06-05T18:56:51.302Z,38.66
2018-06-05T18:59:53.369Z,39.06
2018-06-05T19:02:56.449Z,39.08
2018-06-05T19:05:58.515Z,39.47
2018-06-05T19:09:01.740Z,39.74
2018-06-05T19:12:04.561Z,40.16
2018-06-05T19:15:06.642Z,40.12
2018-06-05T19:18:08.584Z,40.22
2018-06-05T19:21:10.781Z,40.56
2018-06-05T19:24:12.910Z,40.86
2018-06-05T19:27:15.105Z,40.84
2018-06-05T19:30:17.013Z,41.31
2018-06-05T19:33:19.066Z,41.28
2018-06-05T19:36:21.113Z,41.19
2018-06-05T19:39:26.970Z,41.55
2018-06-05T19:42:29.131Z,41.92
2018-06-05T19:45:32.539Z,42.36
2018-06-05T19:48:34.528Z,42.56
2018-06-05T19:51:36.747Z,42.75
2018-06-05T19:54:38.808Z,43.45
2018-06-05T19:57:40.950Z,44.79
2018-06-05T20:00:43.103Z,44.81
2018-06-05T20:03:45.226Z,45.13
2018-06-05T20:06:47.321Z,45.42
2018-06-05T20:09:49.445Z,45.61
2018-06-05T20:12:52.410Z,45.33
2018-06-05T20:15:54.501Z,45.88
2018-06-05T20:18:56.544Z,45.96
2018-06-05T20:22:02.439Z,46.29
2018-06-05T20:25:04.529Z,46.43
2018-06-05T20:28:06.647Z,46.63
2018-06-05T20:31:08.718Z,46.92
2018-06-05T20:34:10.836Z,46.82
2018-06-05T20:37:14.002Z,47.45
2018-06-05T20:40:16.053Z,47.16
2018-06-05T20:43:18.267Z,47.59
2018-06-05T20:46:20.291Z,48.26
2018-06-05T20:49:22.339Z,47.88
2018-06-05T20:52:24.416Z,48.27
2018-06-05T20:55:26.498Z,48.33
2018-06-05T20:58:28.563Z,48.65
2018-06-05T21:01:32.301Z,49.22
2018-06-05T21:04:34.331Z,49.80
2018-06-05T21:07:36.394Z,49.17
2018-06-05T21:10:38.497Z,49.14
2018-06-05T21:13:40.438Z,50.11
2018-06-05T21:16:42.511Z,49.52
2018-06-05T21:19:44.567Z,49.80
2018-06-05T21:22:46.647Z,50.42
2018-06-05T21:25:48.738Z,50.30
2018-06-05T21:28:50.779Z,51.04
2018-06-05T21:31:52.835Z,51.48
2018-06-05T21:34:54.895Z,51.75
2018-06-05T21:37:56.994Z,51.83
2018-06-05T21:40:59.058Z,52.18
2018-06-05T21:44:01.467Z,52.09
2018-06-05T21:47:03.730Z,52.21
2018-06-05T21:50:05.797Z,52.70
2018-06-05T21:53:07.933Z,52.81
2018-06-05T21:56:10.030Z,52.80
2018-06-05T21:59:12.086Z,52.61
2018-06-05T22:02:15.075Z,53.61
2018-06-05T22:05:17.220Z,53.60
2018-06-05T22:08:19.320Z,54.00
2018-06-05T22:11:22.397Z,54.36
2018-06-05T22:14:24.463Z,54.43
2018-06-05T22:17:26.543Z,54.22
2018-06-05T22:20:28.484Z,54.15
2018-06-05T22:23:30.567Z,54.08
2018-06-05T22:26:32.714Z,53.71
2018-06-05T22:29:34.647Z,53.38
2018-06-05T22:32:36.666Z,53.11
2018-06-05T22:35:38.743Z,52.56
2018-06-05T22:38:40.811Z,51.36
2018-06-05T22:41:42.897Z,51.96
2018-06-05T22:44:44.938Z,52.22
2018-06-05T22:47:46.996Z,51.91
2018-06-05T22:50:48.971Z,51.87
2018-06-05T22:53:51.063Z,52.00
2018-06-05T22:56:53.136Z,51.68
2018-06-05T22:59:55.223Z,52.88
2018-06-05T23:02:57.167Z,53.17
2018-06-05T23:05:59.250Z,53.22
2018-06-05T23:09:01.918Z,53.48
2018-06-05T23:12:03.991Z,54.46
2018-06-05T23:15:05.972Z,53.71
2018-06-05T23:18:08.012Z,54.52
2018-06-05T23:21:10.108Z,54.08
2018-06-05T23:24:12.148Z,55.39
2018-06-05T23:27:14.239Z,55.08
2018-06-05T23:30:16.215Z,54.64
2018-06-05T23:33:18.273Z,54.25
2018-06-05T23:36:20.335Z,55.27
2018-06-05T23:39:22.399Z,54.71
2018-06-05T23:42:24.479Z,53.60
2018-06-05T23:45:26.426Z,51.98
2018-06-05T23:48:29.514Z,52.23
2018-06-05T23:51:32.589Z,52.08
2018-06-05T23:54:34.658Z,51.92
2018-06-05T23:57:36.743Z,52.36
